createdAt,value
2017-08-04T00:01:40.283Z,21.00
2017-08-04T00:04:07.753Z,21.00
2017-08-04T00:06:35.991Z,20.90
2017-08-04T00:09:03.445Z,20.80
2017-08-04T00:11:30.931Z,20.90
2017-08-04T00:13:58.488Z,20.80
2017-08-04T00:16:25.961Z,20.80
2017-08-04T00:18:54.232Z,20.80
2017-08-04T00:21:22.486Z,20.80
2017-08-04T00:23:49.956Z,20.80
2017-08-04T00:26:17.426Z,20.80
2017-08-04T00:28:45.740Z,20.80
2017-08-04T00:31:13.242Z,20.80
2017-08-04T00:33:40.856Z,20.80
2017-08-04T00:36:08.359Z,20.80
2017-08-04T00:38:35.831Z,20.80
2017-08-04T00:41:04.090Z,20.90
2017-08-04T00:43:31.659Z,20.80
2017-08-04T00:45:59.889Z,20.90
2017-08-04T00:48:27.437Z,20.80
2017-08-04T00:50:55.038Z,20.90
2017-08-04T00:53:22.601Z,20.90
2017-08-04T00:55:50.158Z,20.90
2017-08-04T00:58:17.673Z,20.90
2017-08-04T01:00:45.186Z,20.90
2017-08-04T01:03:13.464Z,21.00
2017-08-04T01:05:41.736Z,20.90
2017-08-04T01:08:09.203Z,20.90
2017-08-04T01:10:37.468Z,20.90
2017-08-04T01:13:04.933Z,20.90
2017-08-04T01:15:33.244Z,20.90
2017-08-04T01:18:00.717Z,20.90
2017-08-04T01:20:28.201Z,20.90
2017-08-04T01:22:55.820Z,20.90
2017-08-04T01:25:23.381Z,20.90
2017-08-04T01:27:50.891Z,20.90
2017-08-04T01:30:18.458Z,20.90
2017-08-04T01:32:46.714Z,20.90
2017-08-04T01:35:14.275Z,20.90
2017-08-04T01:37:41.888Z,20.90
2017-08-04T01:40:09.339Z,20.90
2017-08-04T01:42:36.797Z,20.90
2017-08-04T01:45:04.252Z,20.90
2017-08-04T01:47:31.750Z,20.90
2017-08-04T01:49:59.219Z,20.90
2017-08-04T01:52:26.782Z,20.90
2017-08-04T01:54:54.247Z,20.90
2017-08-04T01:57:22.501Z,20.90
2017-08-04T01:59:49.954Z,20.80
2017-08-04T02:02:17.476Z,20.90
2017-08-04T02:04:44.933Z,20.90
2017-08-04T02:07:12.424Z,20.90
2017-08-04T02:09:39.880Z,20.80
2017-08-04T02:12:07.334Z,20.90
2017-08-04T02:14:34.808Z,20.90
2017-08-04T02:17:02.284Z,20.90
2017-08-04T02:19:30.530Z,20.90
2017-08-04T02:21:58.009Z,20.80
2017-08-04T02:24:26.323Z,20.80
2017-08-04T02:26:53.822Z,20.80
2017-08-04T02:29:21.292Z,20.80
2017-08-04T02:31:48.849Z,20.80
2017-08-04T02:34:17.085Z,20.80
2017-08-04T02:36:44.546Z,20.80
2017-08-04T02:39:12.004Z,20.80
2017-08-04T02:41:39.539Z,20.80
2017-08-04T02:44:07.052Z,20.80
2017-08-04T02:46:34.510Z,20.80
2017-08-04T02:49:02.739Z,20.80
2017-08-04T02:51:30.206Z,20.70
2017-08-04T02:53:57.671Z,20.80
2017-08-04T02:56:25.141Z,20.70
2017-08-04T02:58:52.708Z,20.70
2017-08-04T03:01:20.174Z,20.70
2017-08-04T03:03:48.410Z,20.70
2017-08-04T03:06:15.878Z,20.60
2017-08-04T03:08:43.336Z,20.70
2017-08-04T03:11:10.902Z,20.60
2017-08-04T03:13:38.374Z,20.50
2017-08-04T03:16:06.628Z,20.50
2017-08-04T03:18:34.095Z,20.40
2017-08-04T03:21:01.709Z,20.50
2017-08-04T03:23:29.215Z,20.50
2017-08-04T03:25:56.670Z,20.40
2017-08-04T03:28:24.236Z,20.40
2017-08-04T03:30:51.791Z,20.40
2017-08-04T03:33:19.337Z,20.40
2017-08-04T03:35:46.857Z,20.40
2017-08-04T03:38:14.354Z,20.30
2017-08-04T03:40:41.808Z,20.30
2017-08-04T03:43:09.326Z,20.20
2017-08-04T03:45:36.837Z,20.20
2017-08-04T03:48:04.380Z,20.20
2017-08-04T03:50:31.905Z,20.10
2017-08-04T03:52:59.420Z,20.10
2017-08-04T03:55:27.674Z,20.00
2017-08-04T03:57:55.140Z,19.90
2017-08-04T04:00:22.690Z,19.90
2017-08-04T04:02:50.308Z,19.90
2017-08-04T04:05:17.801Z,19.90
2017-08-04T04:07:45.322Z,19.90
2017-08-04T04:10:12.787Z,20.00
2017-08-04T04:12:40.338Z,20.00
2017-08-04T04:15:07.783Z,20.10
2017-08-04T04:17:35.354Z,20.10
2017-08-04T04:20:02.911Z,20.20
2017-08-04T04:22:30.405Z,20.20
2017-08-04T04:24:57.870Z,20.20
2017-08-04T04:27:25.334Z,20.20
2017-08-04T04:29:52.809Z,20.20
2017-08-04T04:32:21.116Z,20.30
2017-08-04T04:34:48.618Z,20.30
2017-08-04T04:37:16.064Z,20.40
2017-08-04T04:39:44.466Z,20.40
2017-08-04T04:42:12.786Z,20.60
2017-08-04T04:44:40.386Z,20.50
2017-08-04T04:47:07.945Z,20.60
2017-08-04T04:49:35.402Z,20.60
2017-08-04T04:52:03.073Z,20.70
2017-08-04T04:54:30.632Z,20.70
2017-08-04T04:56:58.098Z,20.70
2017-08-04T04:59:26.412Z,20.80
2017-08-04T05:01:53.905Z,20.70
2017-08-04T05:04:21.374Z,20.80
2017-08-04T05:06:48.850Z,20.80
2017-08-04T05:09:17.102Z,20.80
2017-08-04T05:11:44.657Z,20.70
2017-08-04T05:14:12.139Z,20.80
2017-08-04T05:16:40.393Z,20.80
2017-08-04T05:19:07.938Z,20.80
2017-08-04T05:21:35.497Z,20.90
2017-08-04T05:24:02.977Z,20.90
2017-08-04T05:26:30.536Z,20.90
2017-08-04T05:28:57.977Z,20.90
2017-08-04T05:31:25.547Z,20.90
2017-08-04T05:33:53.068Z,21.00
2017-08-04T05:36:20.555Z,21.00
2017-08-04T05:38:48.120Z,21.10
2017-08-04T05:41:15.661Z,21.10
2017-08-04T05:43:43.113Z,21.10
2017-08-04T05:46:10.586Z,21.20
2017-08-04T05:48:38.200Z,21.30
2017-08-04T05:51:05.706Z,21.40
2017-08-04T05:53:33.276Z,21.50
2017-08-04T05:56:01.533Z,21.40
2017-08-04T05:58:29.002Z,21.40
2017-08-04T06:00:56.877Z,21.40
2017-08-04T06:03:25.146Z,21.40
2017-08-04T06:05:52.703Z,21.40
2017-08-04T06:08:20.250Z,21.40
2017-08-04T06:10:47.810Z,21.50
2017-08-04T06:13:15.366Z,21.50
2017-08-04T06:15:45.488Z,21.50
2017-08-04T06:18:13.761Z,21.60
2017-08-04T06:20:41.276Z,21.50
2017-08-04T06:23:08.778Z,21.70
2017-08-04T06:25:36.231Z,21.70
2017-08-04T06:28:03.799Z,21.70
2017-08-04T06:30:31.259Z,21.70
2017-08-04T06:32:58.711Z,21.90
2017-08-04T06:35:26.324Z,22.00
2017-08-04T06:37:53.803Z,22.10
2017-08-04T06:40:21.265Z,22.10
2017-08-04T06:42:48.837Z,22.00
2017-08-04T06:45:16.302Z,22.00
2017-08-04T06:47:43.756Z,22.10
2017-08-04T06:50:23.089Z,22.10
2017-08-04T06:53:02.391Z,22.10
2017-08-04T06:55:50.392Z,21.90
2017-08-04T06:58:17.870Z,21.90
2017-08-04T07:00:45.429Z,22.00
2017-08-04T07:03:12.920Z,22.00
2017-08-04T07:05:40.386Z,22.00
2017-08-04T07:08:07.858Z,22.00
2017-08-04T07:10:36.110Z,22.00
2017-08-04T07:13:03.677Z,22.00
2017-08-04T07:15:31.230Z,22.20
2017-08-04T07:17:58.785Z,22.30
2017-08-04T07:20:26.273Z,22.50
2017-08-04T07:22:54.533Z,22.40
2017-08-04T07:25:22.085Z,22.30
2017-08-04T07:27:49.647Z,22.40
2017-08-04T07:30:17.160Z,22.50
2017-08-04T07:32:44.719Z,22.40
2017-08-04T07:35:12.221Z,22.30
2017-08-04T07:37:40.473Z,22.20
2017-08-04T07:40:08.057Z,22.30
2017-08-04T07:42:35.627Z,22.50
2017-08-04T07:45:03.888Z,22.60
2017-08-04T07:47:31.503Z,22.50
2017-08-04T07:49:59.061Z,22.60
2017-08-04T07:52:26.580Z,22.60
2017-08-04T07:54:54.899Z,22.80
2017-08-04T07:57:22.398Z,22.70
2017-08-04T07:59:49.852Z,22.80
2017-08-04T08:02:17.324Z,22.70
2017-08-04T08:04:45.585Z,23.00
2017-08-04T08:07:13.050Z,22.90
2017-08-04T08:09:40.510Z,22.90
2017-08-04T08:12:08.772Z,23.10
2017-08-04T08:14:36.251Z,23.00
2017-08-04T08:17:04.495Z,23.30
2017-08-04T08:19:32.067Z,23.30
2017-08-04T08:21:59.626Z,23.30
2017-08-04T08:24:27.916Z,23.40
2017-08-04T08:26:56.133Z,23.30
2017-08-04T08:29:23.585Z,23.30
2017-08-04T08:31:51.521Z,23.20
2017-08-04T08:34:19.742Z,23.30
2017-08-04T08:36:47.286Z,23.30
2017-08-04T08:39:14.787Z,23.40
2017-08-04T08:41:42.333Z,23.40
2017-08-04T08:44:10.715Z,23.70
2017-08-04T08:46:38.239Z,23.90
2017-08-04T08:49:05.797Z,23.90
2017-08-04T08:51:33.355Z,23.90
2017-08-04T08:54:00.848Z,23.80
2017-08-04T08:56:28.371Z,23.80
2017-08-04T08:58:55.885Z,23.70
2017-08-04T09:01:24.145Z,23.80
2017-08-04T09:03:51.697Z,23.70
2017-08-04T09:06:19.261Z,23.80
2017-08-04T09:08:46.943Z,24.00
2017-08-04T09:11:15.201Z,24.10
2017-08-04T09:13:42.675Z,24.10
2017-08-04T09:16:10.944Z,24.50
2017-08-04T09:18:38.488Z,24.50
2017-08-04T09:21:06.210Z,24.60
2017-08-04T09:23:33.714Z,24.60
2017-08-04T09:26:01.328Z,24.60
2017-08-04T09:28:28.980Z,24.60
2017-08-04T09:30:56.548Z,24.60
2017-08-04T09:33:24.106Z,24.40
2017-08-04T09:35:51.664Z,24.40
2017-08-04T09:38:19.169Z,24.40
2017-08-04T09:40:46.726Z,24.50
2017-08-04T09:43:14.278Z,24.50
2017-08-04T09:45:41.747Z,24.50
2017-08-04T09:48:09.210Z,24.50
2017-08-04T09:50:37.483Z,24.90
2017-08-04T09:53:04.949Z,24.90
2017-08-04T09:55:33.210Z,25.40
2017-08-04T09:58:00.764Z,25.30
2017-08-04T10:00:28.244Z,25.30
2017-08-04T10:02:56.552Z,25.50
2017-08-04T10:05:24.000Z,25.50
2017-08-04T10:07:52.188Z,25.60
2017-08-04T10:10:19.672Z,25.60
2017-08-04T10:12:47.202Z,25.70
2017-08-04T10:15:14.669Z,25.80
2017-08-04T10:17:42.143Z,26.00
2017-08-04T10:20:09.625Z,25.90
2017-08-04T10:22:37.860Z,25.30
2017-08-04T10:25:05.341Z,25.30
2017-08-04T10:27:32.823Z,25.30
2017-08-04T10:30:01.057Z,25.10
2017-08-04T10:32:28.535Z,25.10
2017-08-04T10:34:56.084Z,24.90
2017-08-04T10:37:23.603Z,24.70
2017-08-04T10:39:51.103Z,24.70
2017-08-04T10:42:18.562Z,24.80
2017-08-04T10:44:46.105Z,24.90
2017-08-04T10:47:13.569Z,24.90
2017-08-04T10:49:41.024Z,25.10
2017-08-04T10:52:08.482Z,25.10
2017-08-04T10:54:36.042Z,25.10
2017-08-04T10:57:03.610Z,25.10
2017-08-04T10:59:31.162Z,25.10
2017-08-04T11:01:58.676Z,25.20
2017-08-04T11:04:26.177Z,25.10
2017-08-04T11:06:53.794Z,25.00
2017-08-04T11:09:21.258Z,25.00
2017-08-04T11:11:48.751Z,25.10
2017-08-04T11:14:16.306Z,25.00
2017-08-04T11:16:43.774Z,25.10
2017-08-04T11:19:11.331Z,25.10
2017-08-04T11:21:38.940Z,25.40
2017-08-04T11:24:06.516Z,25.80
2017-08-04T11:26:34.002Z,25.80
2017-08-04T11:29:01.475Z,25.80
2017-08-04T11:31:29.729Z,26.10
2017-08-04T11:33:57.352Z,26.10
2017-08-04T11:36:24.811Z,26.50
2017-08-04T11:38:52.309Z,27.00
2017-08-04T11:41:20.025Z,27.50
2017-08-04T11:43:47.533Z,27.40
2017-08-04T11:46:15.097Z,27.30
2017-08-04T11:48:42.598Z,27.00
2017-08-04T11:51:10.083Z,27.10
2017-08-04T11:53:37.555Z,27.10
2017-08-04T11:56:05.131Z,26.70
2017-08-04T11:58:32.601Z,26.20
2017-08-04T12:01:00.830Z,26.70
2017-08-04T12:03:28.300Z,26.60
2017-08-04T12:05:55.777Z,27.10
2017-08-04T12:08:24.018Z,27.10
2017-08-04T12:10:51.482Z,27.10
2017-08-04T12:13:18.952Z,27.10
2017-08-04T12:15:46.464Z,26.90
2017-08-04T12:18:13.975Z,27.00
2017-08-04T12:20:41.526Z,27.10
2017-08-04T12:23:09.072Z,26.90
2017-08-04T12:25:37.109Z,27.00
2017-08-04T12:28:04.979Z,27.20
2017-08-04T12:30:33.504Z,26.90
2017-08-04T12:33:00.958Z,26.90
2017-08-04T12:35:28.508Z,27.10
2017-08-04T12:37:55.975Z,27.30
2017-08-04T12:40:23.447Z,27.20
2017-08-04T12:42:51.679Z,27.40
2017-08-04T12:45:19.215Z,27.30
2017-08-04T12:47:46.731Z,27.70
2017-08-04T12:50:14.999Z,27.90
2017-08-04T12:52:42.448Z,27.80
2017-08-04T12:55:10.015Z,27.70
2017-08-04T12:57:37.571Z,27.50
2017-08-04T13:00:05.161Z,27.70
2017-08-04T13:02:32.625Z,27.70
2017-08-04T13:05:00.079Z,27.60
2017-08-04T13:07:27.543Z,27.80
2017-08-04T13:09:55.050Z,27.60
2017-08-04T13:12:22.619Z,27.10
2017-08-04T13:14:50.165Z,27.20
2017-08-04T13:17:17.721Z,27.10
2017-08-04T13:19:45.178Z,27.10
2017-08-04T13:22:12.672Z,27.30
2017-08-04T13:24:40.904Z,27.60
2017-08-04T13:27:08.531Z,27.60
2017-08-04T13:29:36.014Z,27.60
2017-08-04T13:32:03.507Z,27.70
2017-08-04T13:34:31.771Z,27.50
2017-08-04T13:36:59.243Z,27.50
2017-08-04T13:39:27.498Z,27.50
2017-08-04T13:41:55.044Z,27.50
2017-08-04T13:44:22.504Z,27.50
2017-08-04T13:46:49.961Z,27.10
2017-08-04T13:49:17.425Z,27.00
2017-08-04T13:51:44.991Z,27.10
2017-08-04T13:54:12.463Z,27.50
2017-08-04T13:56:40.770Z,27.80
2017-08-04T13:59:08.330Z,27.80
2017-08-04T14:01:35.851Z,27.70
2017-08-04T14:04:04.116Z,27.50
2017-08-04T14:06:32.391Z,27.40
2017-08-04T14:08:59.851Z,27.30
2017-08-04T14:11:28.136Z,27.60
2017-08-04T14:13:56.453Z,27.40
2017-08-04T14:16:23.936Z,27.40
2017-08-04T14:18:51.565Z,27.60
2017-08-04T14:21:19.035Z,27.70
2017-08-04T14:23:46.542Z,27.50
2017-08-04T14:26:14.779Z,27.10
2017-08-04T14:28:42.268Z,27.10
2017-08-04T14:31:09.734Z,27.10
2017-08-04T14:33:37.984Z,26.80
2017-08-04T14:36:05.574Z,26.70
2017-08-04T14:38:33.883Z,26.70
2017-08-04T14:41:01.387Z,26.60
2017-08-04T14:43:28.855Z,26.80
2017-08-04T14:45:57.107Z,26.80
2017-08-04T14:48:24.571Z,26.70
2017-08-04T14:50:52.033Z,26.60
2017-08-04T14:53:19.499Z,26.50
2017-08-04T14:55:47.771Z,26.70
2017-08-04T14:58:16.002Z,26.70
2017-08-04T15:00:43.503Z,26.60
2017-08-04T15:03:11.774Z,26.00
2017-08-04T15:05:39.234Z,26.00
2017-08-04T15:08:07.491Z,26.20
2017-08-04T15:10:35.108Z,26.20
2017-08-04T15:13:03.405Z,26.80
2017-08-04T15:15:30.874Z,26.80
2017-08-04T15:17:58.342Z,26.60
2017-08-04T15:20:25.961Z,26.40
2017-08-04T15:22:53.419Z,26.50
2017-08-04T15:25:20.887Z,26.70
2017-08-04T15:27:48.432Z,26.80
2017-08-04T15:30:15.922Z,26.90
2017-08-04T15:32:43.411Z,27.00
2017-08-04T15:35:11.726Z,27.20
2017-08-04T15:37:39.191Z,27.20
2017-08-04T15:40:06.738Z,27.00
2017-08-04T15:42:34.237Z,26.90
2017-08-04T15:45:01.698Z,27.10
2017-08-04T15:47:29.267Z,27.10
2017-08-04T15:49:57.492Z,26.60
2017-08-04T15:52:24.996Z,26.60
2017-08-04T15:54:52.449Z,26.60
2017-08-04T15:57:20.690Z,26.60
2017-08-04T15:59:48.144Z,26.60
2017-08-04T16:02:15.635Z,26.70
2017-08-04T16:04:43.098Z,26.60
2017-08-04T16:07:11.326Z,26.80
2017-08-04T16:09:38.778Z,26.70
2017-08-04T16:12:07.230Z,26.40
2017-08-04T16:14:34.699Z,26.20
2017-08-04T16:17:02.210Z,26.40
2017-08-04T16:19:29.766Z,26.60
2017-08-04T16:21:57.329Z,26.50
2017-08-04T16:24:24.941Z,26.70
2017-08-04T16:26:52.417Z,26.80
2017-08-04T16:29:19.906Z,26.80
2017-08-04T16:31:47.392Z,26.50
2017-08-04T16:34:14.922Z,26.30
2017-08-04T16:36:42.464Z,25.90
2017-08-04T16:39:10.040Z,25.70
2017-08-04T16:41:37.506Z,25.60
2017-08-04T16:44:05.766Z,25.30
2017-08-04T16:46:33.332Z,25.30
2017-08-04T16:49:00.882Z,25.20
2017-08-04T16:51:28.397Z,25.10
2017-08-04T16:53:55.869Z,25.10
2017-08-04T16:56:23.334Z,25.40
2017-08-04T16:58:50.808Z,25.70
2017-08-04T17:01:18.265Z,25.80
2017-08-04T17:03:45.722Z,25.90
2017-08-04T17:06:13.264Z,25.90
2017-08-04T17:08:40.732Z,26.00
2017-08-04T17:11:08.199Z,26.20
2017-08-04T17:13:35.750Z,26.40
2017-08-04T17:16:03.369Z,26.40
2017-08-04T17:18:30.816Z,26.20
2017-08-04T17:20:58.290Z,26.10
2017-08-04T17:23:25.750Z,26.00
2017-08-04T17:25:53.238Z,26.00
2017-08-04T17:28:20.807Z,25.80
2017-08-04T17:30:48.312Z,25.70
2017-08-04T17:33:15.823Z,25.70
2017-08-04T17:35:43.303Z,25.70
2017-08-04T17:38:11.546Z,25.40
2017-08-04T17:40:39.102Z,25.40
2017-08-04T17:43:06.658Z,25.30
2017-08-04T17:45:34.126Z,25.20
2017-08-04T17:48:01.664Z,25.20
2017-08-04T17:50:29.192Z,25.10
2017-08-04T17:52:56.693Z,25.00
2017-08-04T17:55:24.245Z,25.00
2017-08-04T17:57:51.810Z,24.80
2017-08-04T18:00:19.375Z,24.80
2017-08-04T18:02:58.799Z,24.70
2017-08-04T18:05:26.276Z,24.60
2017-08-04T18:07:54.595Z,24.50
2017-08-04T18:10:22.321Z,24.40
2017-08-04T18:12:50.577Z,24.40
2017-08-04T18:15:18.585Z,24.30
2017-08-04T18:17:49.569Z,24.40
2017-08-04T18:20:17.332Z,24.40
2017-08-04T18:22:50.645Z,24.40
2017-08-04T18:25:18.936Z,24.30
2017-08-04T18:27:47.893Z,24.30
2017-08-04T18:30:15.383Z,24.20
2017-08-04T18:32:43.636Z,24.20
2017-08-04T18:35:11.154Z,24.10
2017-08-04T18:37:38.714Z,24.20
2017-08-04T18:40:06.199Z,24.20
2017-08-04T18:42:33.669Z,24.20
2017-08-04T18:45:01.238Z,24.10
2017-08-04T18:47:28.777Z,24.00
2017-08-04T18:49:56.233Z,23.90
2017-08-04T18:52:23.759Z,23.80
2017-08-04T18:54:51.214Z,23.90
2017-08-04T18:57:18.713Z,23.80
2017-08-04T18:59:46.180Z,23.70
2017-08-04T19:02:13.729Z,23.70
2017-08-04T19:04:41.212Z,23.70
2017-08-04T19:07:09.476Z,23.70
2017-08-04T19:09:37.752Z,23.80
2017-08-04T19:12:06.316Z,23.70
2017-08-04T19:14:33.780Z,23.80
2017-08-04T19:17:01.267Z,23.80
2017-08-04T19:19:29.498Z,23.80
2017-08-04T19:21:58.053Z,23.70
2017-08-04T19:24:25.571Z,23.70
2017-08-04T19:26:53.834Z,23.70
2017-08-04T19:29:21.398Z,23.60
2017-08-04T19:31:49.622Z,23.60
2017-08-04T19:34:17.183Z,23.50
2017-08-04T19:36:44.876Z,23.50
2017-08-04T19:39:12.429Z,23.50
2017-08-04T19:41:40.259Z,23.50
2017-08-04T19:44:08.065Z,23.50
2017-08-04T19:46:35.895Z,23.50
2017-08-04T19:49:03.440Z,23.40
2017-08-04T19:51:30.946Z,23.40
2017-08-04T19:53:58.519Z,23.30
2017-08-04T19:56:26.803Z,23.10
2017-08-04T20:01:29.063Z,23.00
2017-08-04T20:03:56.635Z,23.00
2017-08-04T20:06:24.243Z,23.00
2017-08-04T20:08:51.755Z,23.00
2017-08-04T20:11:20.031Z,23.00
2017-08-04T20:13:48.281Z,23.00
2017-08-04T20:16:15.841Z,22.90
2017-08-04T20:18:43.297Z,23.00
2017-08-04T20:21:10.778Z,22.90
2017-08-04T20:23:38.240Z,22.80
2017-08-04T20:26:06.490Z,22.60
2017-08-04T20:28:33.947Z,22.60
2017-08-04T20:31:01.528Z,22.60
2017-08-04T20:33:29.799Z,22.50
2017-08-04T20:35:58.066Z,22.50
2017-08-04T20:38:25.621Z,22.50
2017-08-04T20:40:53.179Z,22.50
2017-08-04T20:43:20.641Z,22.50
2017-08-04T20:45:48.884Z,22.40
2017-08-04T20:48:16.384Z,22.40
2017-08-04T20:50:44.656Z,22.30
2017-08-04T20:53:12.117Z,22.30
2017-08-04T20:55:40.388Z,22.40
2017-08-04T20:58:07.844Z,22.40
2017-08-04T21:00:35.312Z,22.50
2017-08-04T21:03:03.558Z,22.50
2017-08-04T21:05:31.028Z,22.50
2017-08-04T21:07:58.495Z,22.50
2017-08-04T21:10:26.739Z,22.50
2017-08-04T21:12:54.215Z,22.50
2017-08-04T21:15:21.695Z,22.50
2017-08-04T21:17:49.911Z,22.50
2017-08-04T21:20:17.837Z,22.50
2017-08-04T21:22:46.582Z,22.50
2017-08-04T21:25:14.253Z,22.50
2017-08-04T21:27:43.564Z,22.40
2017-08-04T21:30:11.119Z,22.40
2017-08-04T21:32:51.512Z,22.40
2017-08-04T21:35:26.480Z,22.40
2017-08-04T21:37:53.951Z,22.40
2017-08-04T21:43:35.983Z,22.40
2017-08-04T21:46:08.470Z,22.40
2017-08-04T21:48:51.495Z,22.30
2017-08-04T21:51:21.801Z,22.30
2017-08-04T21:53:49.360Z,22.20
2017-08-04T21:56:19.023Z,22.20
2017-08-04T21:58:46.521Z,22.20
2017-08-04T22:01:14.087Z,22.10
2017-08-04T22:03:41.751Z,22.00
2017-08-04T22:06:09.302Z,21.90
2017-08-04T22:08:36.819Z,21.90
2017-08-04T22:11:04.314Z,21.80
2017-08-04T22:13:31.770Z,21.80
2017-08-04T22:15:59.330Z,21.70
2017-08-04T22:18:26.880Z,21.60
2017-08-04T22:20:54.450Z,21.60
2017-08-04T22:23:21.919Z,21.50
2017-08-04T22:25:49.387Z,21.40
2017-08-04T22:28:17.642Z,21.40
2017-08-04T22:30:45.114Z,21.40
2017-08-04T22:33:13.329Z,21.20
2017-08-04T22:35:40.839Z,21.20
2017-08-04T22:38:08.304Z,21.20
2017-08-04T22:40:36.557Z,21.10
2017-08-04T22:43:04.109Z,21.00
2017-08-04T22:45:31.566Z,21.10
2017-08-04T22:47:59.140Z,21.10
2017-08-04T22:50:26.693Z,21.10
2017-08-04T22:52:54.255Z,21.10
2017-08-04T22:55:21.732Z,21.10
2017-08-04T22:57:49.991Z,21.20
2017-08-04T23:00:18.253Z,21.10
2017-08-04T23:02:45.827Z,21.10
2017-08-04T23:05:13.379Z,21.20
2017-08-04T23:07:40.991Z,21.20
2017-08-04T23:10:08.432Z,21.20
2017-08-04T23:12:35.893Z,21.10
2017-08-04T23:15:03.417Z,21.10
2017-08-04T23:17:31.689Z,21.20
2017-08-04T23:19:59.147Z,21.10
2017-08-04T23:22:30.408Z,21.10
2017-08-04T23:24:59.201Z,21.10
2017-08-04T23:27:27.442Z,21.10
2017-08-04T23:29:55.002Z,21.10
2017-08-04T23:32:22.553Z,21.10
2017-08-04T23:34:50.010Z,20.90
2017-08-04T23:37:17.474Z,20.80
2017-08-04T23:39:44.939Z,20.80
2017-08-04T23:42:12.496Z,20.70
2017-08-04T23:44:40.056Z,20.70
2017-08-04T23:47:07.663Z,20.70
2017-08-04T23:49:35.171Z,20.60
2017-08-04T23:52:02.736Z,20.50
2017-08-04T23:54:30.281Z,20.50
2017-08-04T23:56:57.741Z,20.60
2017-08-04T23:59:25.303Z,20.70
